sensor_id;sensor_type;location;lat;lon;timestamp;temperature;humidity
11764;DHT22;5939;56.522;14.950;2024-02-26T00:00:29;5.00;99.90
11764;DHT22;5939;56.522;14.950;2024-02-26T00:02:55;5.00;99.90
11764;DHT22;5939;56.522;14.950;2024-02-26T00:05:21;5.00;99.90
11764;DHT22;5939;56.522;14.950;2024-02-26T00:07:47;5.00;99.90
11764;DHT22;5939;56.522;14.950;2024-02-26T00:10:14;5.00;99.90
11764;DHT22;5939;56.522;14.950;2024-02-26T00:12:40;4.90;99.90
11764;DHT22;5939;56.522;14.950;2024-02-26T00:15:09;4.90;99.90
11764;DHT22;5939;56.522;14.950;2024-02-26T00:17:35;4.90;99.90
11764;DHT22;5939;56.522;14.950;2024-02-26T00:20:04;4.90;99.90
11764;DHT22;5939;56.522;14.950;2024-02-26T00:22:33;4.90;99.90
11764;DHT22;5939;56.522;14.950;2024-02-26T00:24:59;4.90;99.90
11764;DHT22;5939;56.522;14.950;2024-02-26T00:27:25;4.90;99.90
11764;DHT22;5939;56.522;14.950;2024-02-26T00:29:51;4.90;99.90
11764;DHT22;5939;56.522;14.950;2024-02-26T00:32:16;4.90;99.90
11764;DHT22;5939;56.522;14.950;2024-02-26T00:34:42;4.90;99.90
11764;DHT22;5939;56.522;14.950;2024-02-26T00:37:07;4.90;99.90
11764;DHT22;5939;56.522;14.950;2024-02-26T00:39:33;4.90;99.90
11764;DHT22;5939;56.522;14.950;2024-02-26T00:41:59;4.90;99.90
11764;DHT22;5939;56.522;14.950;2024-02-26T00:44:24;4.90;99.90
11764;DHT22;5939;56.522;14.950;2024-02-26T00:46:50;4.90;99.90
11764;DHT22;5939;56.522;14.950;2024-02-26T00:49:15;4.90;99.90
11764;DHT22;5939;56.522;14.950;2024-02-26T00:51:41;4.90;99.90
11764;DHT22;5939;56.522;14.950;2024-02-26T00:54:07;4.90;99.90
11764;DHT22;5939;56.522;14.950;2024-02-26T00:56:32;4.90;99.90
11764;DHT22;5939;56.522;14.950;2024-02-26T00:58:58;4.90;99.90
11764;DHT22;5939;56.522;14.950;2024-02-26T01:01:24;4.90;99.90
11764;DHT22;5939;56.522;14.950;2024-02-26T01:03:50;4.90;99.90
11764;DHT22;5939;56.522;14.950;2024-02-26T01:06:15;4.80;99.90
11764;DHT22;5939;56.522;14.950;2024-02-26T01:08:41;4.90;99.90
11764;DHT22;5939;56.522;14.950;2024-02-26T01:11:07;4.90;99.90
11764;DHT22;5939;56.522;14.950;2024-02-26T01:13:33;4.80;99.90
11764;DHT22;5939;56.522;14.950;2024-02-26T01:15:59;4.90;99.90
11764;DHT22;5939;56.522;14.950;2024-02-26T01:18:26;4.90;99.90
11764;DHT22;5939;56.522;14.950;2024-02-26T01:20:51;4.80;99.90
11764;DHT22;5939;56.522;14.950;2024-02-26T01:23:20;4.80;99.90
11764;DHT22;5939;56.522;14.950;2024-02-26T01:25:45;4.90;99.90
11764;DHT22;5939;56.522;14.950;2024-02-26T01:28:11;4.80;99.90
11764;DHT22;5939;56.522;14.950;2024-02-26T01:30:37;4.80;99.90
11764;DHT22;5939;56.522;14.950;2024-02-26T01:33:02;4.80;99.90
11764;DHT22;5939;56.522;14.950;2024-02-26T01:35:29;4.80;99.90
11764;DHT22;5939;56.522;14.950;2024-02-26T01:37:55;4.90;99.90
11764;DHT22;5939;56.522;14.950;2024-02-26T01:40:22;4.80;99.90
11764;DHT22;5939;56.522;14.950;2024-02-26T01:42:47;4.80;99.90
11764;DHT22;5939;56.522;14.950;2024-02-26T01:45:17;4.80;99.90
11764;DHT22;5939;56.522;14.950;2024-02-26T01:47:52;4.80;99.90
11764;DHT22;5939;56.522;14.950;2024-02-26T01:50:19;4.80;99.90
11764;DHT22;5939;56.522;14.950;2024-02-26T01:52:49;4.80;99.90
11764;DHT22;5939;56.522;14.950;2024-02-26T01:55:17;4.80;99.90
11764;DHT22;5939;56.522;14.950;2024-02-26T01:57:44;4.80;99.90
11764;DHT22;5939;56.522;14.950;2024-02-26T02:00:11;4.80;99.90
11764;DHT22;5939;56.522;14.950;2024-02-26T02:02:38;4.80;99.90
11764;DHT22;5939;56.522;14.950;2024-02-26T02:05:06;4.80;99.90
11764;DHT22;5939;56.522;14.950;2024-02-26T02:07:32;4.80;99.90
11764;DHT22;5939;56.522;14.950;2024-02-26T02:09:58;4.80;99.90
11764;DHT22;5939;56.522;14.950;2024-02-26T02:12:24;4.80;99.90
11764;DHT22;5939;56.522;14.950;2024-02-26T02:14:50;4.80;99.90
11764;DHT22;5939;56.522;14.950;2024-02-26T02:17:16;4.80;99.90
11764;DHT22;5939;56.522;14.950;2024-02-26T02:19:41;4.80;99.90
11764;DHT22;5939;56.522;14.950;2024-02-26T02:22:07;4.70;99.90
11764;DHT22;5939;56.522;14.950;2024-02-26T02:24:33;4.80;99.90
11764;DHT22;5939;56.522;14.950;2024-02-26T02:26:59;4.80;99.90
11764;DHT22;5939;56.522;14.950;2024-02-26T02:29:25;4.80;99.90
11764;DHT22;5939;56.522;14.950;2024-02-26T02:31:50;4.80;99.90
11764;DHT22;5939;56.522;14.950;2024-02-26T02:34:16;4.80;99.90
11764;DHT22;5939;56.522;14.950;2024-02-26T02:36:51;4.80;99.90
11764;DHT22;5939;56.522;14.950;2024-02-26T02:39:17;4.70;99.90
11764;DHT22;5939;56.522;14.950;2024-02-26T02:41:42;4.70;99.90
11764;DHT22;5939;56.522;14.950;2024-02-26T02:44:08;4.70;99.90
11764;DHT22;5939;56.522;14.950;2024-02-26T02:46:33;4.70;99.90
11764;DHT22;5939;56.522;14.950;2024-02-26T02:49:00;4.70;99.90
11764;DHT22;5939;56.522;14.950;2024-02-26T02:51:26;4.70;99.90
11764;DHT22;5939;56.522;14.950;2024-02-26T02:53:52;4.70;99.90
11764;DHT22;5939;56.522;14.950;2024-02-26T02:56:17;4.70;99.90
11764;DHT22;5939;56.522;14.950;2024-02-26T02:58:43;4.70;99.90
11764;DHT22;5939;56.522;14.950;2024-02-26T03:01:09;4.70;99.90
11764;DHT22;5939;56.522;14.950;2024-02-26T03:03:34;4.70;99.90
11764;DHT22;5939;56.522;14.950;2024-02-26T03:06:02;4.70;99.90
11764;DHT22;5939;56.522;14.950;2024-02-26T03:08:28;4.70;99.90
11764;DHT22;5939;56.522;14.950;2024-02-26T03:10:54;4.70;99.90
11764;DHT22;5939;56.522;14.950;2024-02-26T03:13:20;4.70;99.90
11764;DHT22;5939;56.522;14.950;2024-02-26T03:15:46;4.70;99.90
11764;DHT22;5939;56.522;14.950;2024-02-26T03:18:11;4.70;99.90
11764;DHT22;5939;56.522;14.950;2024-02-26T03:20:37;4.70;99.90
11764;DHT22;5939;56.522;14.950;2024-02-26T03:23:03;4.70;99.90
11764;DHT22;5939;56.522;14.950;2024-02-26T03:25:29;4.70;99.90
11764;DHT22;5939;56.522;14.950;2024-02-26T03:27:54;4.70;99.90
11764;DHT22;5939;56.522;14.950;2024-02-26T03:30:20;4.70;99.90
11764;DHT22;5939;56.522;14.950;2024-02-26T03:32:45;4.70;99.90
11764;DHT22;5939;56.522;14.950;2024-02-26T03:35:13;4.70;99.90
11764;DHT22;5939;56.522;14.950;2024-02-26T03:37:38;4.60;99.90
11764;DHT22;5939;56.522;14.950;2024-02-26T03:40:04;4.70;99.90
11764;DHT22;5939;56.522;14.950;2024-02-26T03:42:30;4.60;99.90
11764;DHT22;5939;56.522;14.950;2024-02-26T03:44:56;4.60;99.90
11764;DHT22;5939;56.522;14.950;2024-02-26T03:47:21;4.60;99.90
11764;DHT22;5939;56.522;14.950;2024-02-26T03:49:47;4.60;99.90
11764;DHT22;5939;56.522;14.950;2024-02-26T03:52:13;4.60;99.90
11764;DHT22;5939;56.522;14.950;2024-02-26T03:54:38;4.60;99.90
11764;DHT22;5939;56.522;14.950;2024-02-26T03:57:04;4.60;99.90
11764;DHT22;5939;56.522;14.950;2024-02-26T03:59:30;4.60;99.90
11764;DHT22;5939;56.522;14.950;2024-02-26T04:01:55;4.60;99.90
11764;DHT22;5939;56.522;14.950;2024-02-26T04:04:21;4.60;99.90
11764;DHT22;5939;56.522;14.950;2024-02-26T04:06:47;4.60;99.90
11764;DHT22;5939;56.522;14.950;2024-02-26T04:09:16;4.60;99.90
11764;DHT22;5939;56.522;14.950;2024-02-26T04:11:41;4.60;99.90
11764;DHT22;5939;56.522;14.950;2024-02-26T04:14:08;4.50;99.90
11764;DHT22;5939;56.522;14.950;2024-02-26T04:16:35;4.50;99.90
11764;DHT22;5939;56.522;14.950;2024-02-26T04:19:03;4.50;99.90
11764;DHT22;5939;56.522;14.950;2024-02-26T04:21:29;4.50;99.90
11764;DHT22;5939;56.522;14.950;2024-02-26T04:23:54;4.50;99.90
11764;DHT22;5939;56.522;14.950;2024-02-26T04:26:21;4.50;99.90
11764;DHT22;5939;56.522;14.950;2024-02-26T04:28:47;4.50;99.90
11764;DHT22;5939;56.522;14.950;2024-02-26T04:31:12;4.50;99.90
11764;DHT22;5939;56.522;14.950;2024-02-26T04:33:38;4.40;99.90
11764;DHT22;5939;56.522;14.950;2024-02-26T04:36:04;4.50;99.90
11764;DHT22;5939;56.522;14.950;2024-02-26T04:38:30;4.40;99.90
11764;DHT22;5939;56.522;14.950;2024-02-26T04:40:55;4.50;99.90
11764;DHT22;5939;56.522;14.950;2024-02-26T04:43:21;4.50;99.90
11764;DHT22;5939;56.522;14.950;2024-02-26T04:45:47;4.40;99.90
11764;DHT22;5939;56.522;14.950;2024-02-26T04:48:13;4.40;99.90
11764;DHT22;5939;56.522;14.950;2024-02-26T04:50:39;4.40;99.90
11764;DHT22;5939;56.522;14.950;2024-02-26T04:53:04;4.40;99.90
11764;DHT22;5939;56.522;14.950;2024-02-26T04:55:30;4.40;99.90
11764;DHT22;5939;56.522;14.950;2024-02-26T04:57:56;4.40;99.90
11764;DHT22;5939;56.522;14.950;2024-02-26T05:00:21;4.30;99.90
11764;DHT22;5939;56.522;14.950;2024-02-26T05:02:47;4.30;99.90
11764;DHT22;5939;56.522;14.950;2024-02-26T05:05:13;4.30;99.90
11764;DHT22;5939;56.522;14.950;2024-02-26T05:07:41;4.30;99.90
11764;DHT22;5939;56.522;14.950;2024-02-26T05:10:07;4.30;99.90
11764;DHT22;5939;56.522;14.950;2024-02-26T05:12:33;4.30;99.90
11764;DHT22;5939;56.522;14.950;2024-02-26T05:15:01;4.30;99.90
11764;DHT22;5939;56.522;14.950;2024-02-26T05:17:27;4.30;99.90
11764;DHT22;5939;56.522;14.950;2024-02-26T05:19:53;4.30;99.90
11764;DHT22;5939;56.522;14.950;2024-02-26T05:22:19;4.30;99.90
11764;DHT22;5939;56.522;14.950;2024-02-26T05:24:45;4.30;99.90
11764;DHT22;5939;56.522;14.950;2024-02-26T05:27:10;4.20;99.90
11764;DHT22;5939;56.522;14.950;2024-02-26T05:29:37;4.20;99.90
11764;DHT22;5939;56.522;14.950;2024-02-26T05:32:04;4.20;99.90
11764;DHT22;5939;56.522;14.950;2024-02-26T05:34:30;4.20;99.90
11764;DHT22;5939;56.522;14.950;2024-02-26T05:36:56;4.20;99.90
11764;DHT22;5939;56.522;14.950;2024-02-26T05:39:22;4.20;99.90
11764;DHT22;5939;56.522;14.950;2024-02-26T05:41:47;4.20;99.90
11764;DHT22;5939;56.522;14.950;2024-02-26T05:44:15;4.20;99.90
11764;DHT22;5939;56.522;14.950;2024-02-26T05:46:41;4.10;99.90
11764;DHT22;5939;56.522;14.950;2024-02-26T05:49:07;4.20;99.90
11764;DHT22;5939;56.522;14.950;2024-02-26T05:51:33;4.20;99.90
11764;DHT22;5939;56.522;14.950;2024-02-26T05:53:58;4.20;99.90
11764;DHT22;5939;56.522;14.950;2024-02-26T05:56:24;4.10;99.90
11764;DHT22;5939;56.522;14.950;2024-02-26T05:58:50;4.10;99.90
11764;DHT22;5939;56.522;14.950;2024-02-26T06:01:17;4.20;99.90
11764;DHT22;5939;56.522;14.950;2024-02-26T06:03:43;4.10;99.90
11764;DHT22;5939;56.522;14.950;2024-02-26T06:06:10;4.10;99.90
11764;DHT22;5939;56.522;14.950;2024-02-26T06:08:36;4.10;99.90
11764;DHT22;5939;56.522;14.950;2024-02-26T06:11:07;4.10;99.90
11764;DHT22;5939;56.522;14.950;2024-02-26T06:13:34;4.10;99.90
11764;DHT22;5939;56.522;14.950;2024-02-26T06:16:00;4.10;99.90
11764;DHT22;5939;56.522;14.950;2024-02-26T06:18:26;4.10;99.90
11764;DHT22;5939;56.522;14.950;2024-02-26T06:20:51;4.10;99.90
11764;DHT22;5939;56.522;14.950;2024-02-26T06:23:17;4.00;99.90
11764;DHT22;5939;56.522;14.950;2024-02-26T06:25:43;4.10;99.90
11764;DHT22;5939;56.522;14.950;2024-02-26T06:28:08;4.10;99.90
11764;DHT22;5939;56.522;14.950;2024-02-26T06:30:34;4.10;99.90
11764;DHT22;5939;56.522;14.950;2024-02-26T06:33:00;4.10;99.90
11764;DHT22;5939;56.522;14.950;2024-02-26T06:35:26;4.10;99.90
11764;DHT22;5939;56.522;14.950;2024-02-26T06:37:52;4.10;99.90
11764;DHT22;5939;56.522;14.950;2024-02-26T06:40:19;4.10;99.90
11764;DHT22;5939;56.522;14.950;2024-02-26T06:42:45;4.10;99.90
11764;DHT22;5939;56.522;14.950;2024-02-26T06:45:10;4.00;99.90
11764;DHT22;5939;56.522;14.950;2024-02-26T06:47:36;4.00;99.90
11764;DHT22;5939;56.522;14.950;2024-02-26T06:50:02;4.00;99.90
11764;DHT22;5939;56.522;14.950;2024-02-26T06:52:28;4.00;99.90
11764;DHT22;5939;56.522;14.950;2024-02-26T06:54:54;4.00;99.90
11764;DHT22;5939;56.522;14.950;2024-02-26T06:57:20;4.00;99.90
11764;DHT22;5939;56.522;14.950;2024-02-26T06:59:46;4.00;99.90
11764;DHT22;5939;56.522;14.950;2024-02-26T07:02:13;4.00;99.90
11764;DHT22;5939;56.522;14.950;2024-02-26T07:04:39;4.00;99.90
11764;DHT22;5939;56.522;14.950;2024-02-26T07:07:06;4.00;99.90
11764;DHT22;5939;56.522;14.950;2024-02-26T07:09:32;4.00;99.90
11764;DHT22;5939;56.522;14.950;2024-02-26T07:11:58;4.00;99.90
11764;DHT22;5939;56.522;14.950;2024-02-26T07:14:23;4.00;99.90
11764;DHT22;5939;56.522;14.950;2024-02-26T07:16:50;4.00;99.90
11764;DHT22;5939;56.522;14.950;2024-02-26T07:19:16;4.00;99.90
11764;DHT22;5939;56.522;14.950;2024-02-26T07:21:42;4.00;99.90
11764;DHT22;5939;56.522;14.950;2024-02-26T07:24:08;3.90;99.90
11764;DHT22;5939;56.522;14.950;2024-02-26T07:26:34;3.90;99.90
11764;DHT22;5939;56.522;14.950;2024-02-26T07:28:59;3.90;99.90
11764;DHT22;5939;56.522;14.950;2024-02-26T07:31:26;3.90;99.90
11764;DHT22;5939;56.522;14.950;2024-02-26T07:33:52;3.90;99.90
11764;DHT22;5939;56.522;14.950;2024-02-26T07:36:17;3.90;99.90
11764;DHT22;5939;56.522;14.950;2024-02-26T07:38:43;3.90;99.90
11764;DHT22;5939;56.522;14.950;2024-02-26T07:41:09;3.90;99.90
11764;DHT22;5939;56.522;14.950;2024-02-26T07:43:35;3.90;99.90
11764;DHT22;5939;56.522;14.950;2024-02-26T07:46:00;3.90;99.90
11764;DHT22;5939;56.522;14.950;2024-02-26T07:48:26;3.90;99.90
11764;DHT22;5939;56.522;14.950;2024-02-26T07:50:52;3.90;99.90
11764;DHT22;5939;56.522;14.950;2024-02-26T07:53:17;3.90;99.90
11764;DHT22;5939;56.522;14.950;2024-02-26T07:55:43;3.90;99.90
11764;DHT22;5939;56.522;14.950;2024-02-26T07:58:09;3.90;99.90
11764;DHT22;5939;56.522;14.950;2024-02-26T08:00:34;3.90;99.90
11764;DHT22;5939;56.522;14.950;2024-02-26T08:03:00;4.00;99.90
11764;DHT22;5939;56.522;14.950;2024-02-26T08:05:26;4.00;99.90
11764;DHT22;5939;56.522;14.950;2024-02-26T08:07:52;3.90;99.90
11764;DHT22;5939;56.522;14.950;2024-02-26T08:10:17;3.90;99.90
11764;DHT22;5939;56.522;14.950;2024-02-26T08:12:43;3.90;99.90
11764;DHT22;5939;56.522;14.950;2024-02-26T08:15:10;3.90;99.90
11764;DHT22;5939;56.522;14.950;2024-02-26T08:17:36;3.90;99.90
11764;DHT22;5939;56.522;14.950;2024-02-26T08:20:02;3.90;99.90
11764;DHT22;5939;56.522;14.950;2024-02-26T08:22:28;3.90;99.90
11764;DHT22;5939;56.522;14.950;2024-02-26T08:24:54;3.90;99.90
11764;DHT22;5939;56.522;14.950;2024-02-26T08:27:19;3.90;99.90
11764;DHT22;5939;56.522;14.950;2024-02-26T08:29:45;3.90;99.90
11764;DHT22;5939;56.522;14.950;2024-02-26T08:32:11;3.90;99.90
11764;DHT22;5939;56.522;14.950;2024-02-26T08:34:37;3.90;99.90
11764;DHT22;5939;56.522;14.950;2024-02-26T08:37:03;3.90;99.90
11764;DHT22;5939;56.522;14.950;2024-02-26T08:39:28;3.90;99.90
11764;DHT22;5939;56.522;14.950;2024-02-26T08:41:54;4.00;99.90
11764;DHT22;5939;56.522;14.950;2024-02-26T08:44:20;4.00;99.90
11764;DHT22;5939;56.522;14.950;2024-02-26T08:46:45;4.00;99.90
11764;DHT22;5939;56.522;14.950;2024-02-26T08:49:11;4.00;99.90
11764;DHT22;5939;56.522;14.950;2024-02-26T08:51:42;4.00;99.90
11764;DHT22;5939;56.522;14.950;2024-02-26T08:54:08;4.00;99.90
11764;DHT22;5939;56.522;14.950;2024-02-26T08:56:34;4.00;99.90
11764;DHT22;5939;56.522;14.950;2024-02-26T08:58:59;4.00;99.90
11764;DHT22;5939;56.522;14.950;2024-02-26T09:01:30;3.90;99.90
11764;DHT22;5939;56.522;14.950;2024-02-26T09:03:56;4.00;99.90
11764;DHT22;5939;56.522;14.950;2024-02-26T09:06:22;4.00;99.90
11764;DHT22;5939;56.522;14.950;2024-02-26T09:08:47;4.00;99.90
11764;DHT22;5939;56.522;14.950;2024-02-26T09:11:13;4.00;99.90
11764;DHT22;5939;56.522;14.950;2024-02-26T09:13:39;4.00;99.90
11764;DHT22;5939;56.522;14.950;2024-02-26T09:16:05;4.00;99.90
11764;DHT22;5939;56.522;14.950;2024-02-26T09:18:31;4.00;99.90
11764;DHT22;5939;56.522;14.950;2024-02-26T09:20:57;4.10;99.90
11764;DHT22;5939;56.522;14.950;2024-02-26T09:23:22;4.10;99.90
11764;DHT22;5939;56.522;14.950;2024-02-26T09:25:48;4.10;99.90
11764;DHT22;5939;56.522;14.950;2024-02-26T09:28:14;4.10;99.90
11764;DHT22;5939;56.522;14.950;2024-02-26T09:30:43;4.10;99.90
11764;DHT22;5939;56.522;14.950;2024-02-26T09:33:09;4.10;99.90
11764;DHT22;5939;56.522;14.950;2024-02-26T09:35:34;4.10;99.90
11764;DHT22;5939;56.522;14.950;2024-02-26T09:38:00;4.10;99.90
11764;DHT22;5939;56.522;14.950;2024-02-26T09:40:25;4.10;99.90
11764;DHT22;5939;56.522;14.950;2024-02-26T09:42:58;4.10;99.90
11764;DHT22;5939;56.522;14.950;2024-02-26T09:45:25;4.10;99.90
11764;DHT22;5939;56.522;14.950;2024-02-26T09:47:55;4.10;99.90
11764;DHT22;5939;56.522;14.950;2024-02-26T09:50:21;4.20;99.90
11764;DHT22;5939;56.522;14.950;2024-02-26T09:52:49;4.10;99.90
11764;DHT22;5939;56.522;14.950;2024-02-26T09:55:15;4.20;99.90
11764;DHT22;5939;56.522;14.950;2024-02-26T09:57:45;4.20;99.90
11764;DHT22;5939;56.522;14.950;2024-02-26T10:00:17;4.20;99.90
11764;DHT22;5939;56.522;14.950;2024-02-26T10:02:46;4.20;99.90
11764;DHT22;5939;56.522;14.950;2024-02-26T10:05:17;4.20;99.90
11764;DHT22;5939;56.522;14.950;2024-02-26T10:07:46;4.30;99.90
11764;DHT22;5939;56.522;14.950;2024-02-26T10:10:13;4.30;99.90
11764;DHT22;5939;56.522;14.950;2024-02-26T10:12:39;4.30;99.90
11764;DHT22;5939;56.522;14.950;2024-02-26T10:15:05;4.30;99.90
11764;DHT22;5939;56.522;14.950;2024-02-26T10:17:31;4.30;99.90
11764;DHT22;5939;56.522;14.950;2024-02-26T10:20:11;4.40;99.90
11764;DHT22;5939;56.522;14.950;2024-02-26T10:22:37;4.30;99.90
11764;DHT22;5939;56.522;14.950;2024-02-26T10:25:03;4.40;99.90
11764;DHT22;5939;56.522;14.950;2024-02-26T10:27:29;4.40;99.90
11764;DHT22;5939;56.522;14.950;2024-02-26T10:29:57;4.40;99.90
11764;DHT22;5939;56.522;14.950;2024-02-26T10:32:22;4.50;99.90
11764;DHT22;5939;56.522;14.950;2024-02-26T10:34:48;4.50;99.90
11764;DHT22;5939;56.522;14.950;2024-02-26T10:37:14;4.50;99.90
11764;DHT22;5939;56.522;14.950;2024-02-26T10:39:46;4.50;99.90
11764;DHT22;5939;56.522;14.950;2024-02-26T10:42:12;4.50;99.90
11764;DHT22;5939;56.522;14.950;2024-02-26T10:44:40;4.60;99.90
11764;DHT22;5939;56.522;14.950;2024-02-26T10:47:07;4.60;99.90
11764;DHT22;5939;56.522;14.950;2024-02-26T10:49:35;4.60;99.90
11764;DHT22;5939;56.522;14.950;2024-02-26T10:52:01;4.60;99.90
11764;DHT22;5939;56.522;14.950;2024-02-26T10:54:29;4.70;99.90
11764;DHT22;5939;56.522;14.950;2024-02-26T10:56:57;4.70;99.90
11764;DHT22;5939;56.522;14.950;2024-02-26T10:59:24;4.70;99.90
11764;DHT22;5939;56.522;14.950;2024-02-26T11:01:50;4.80;99.90
11764;DHT22;5939;56.522;14.950;2024-02-26T11:04:17;4.80;99.90
11764;DHT22;5939;56.522;14.950;2024-02-26T11:06:45;4.80;99.90
11764;DHT22;5939;56.522;14.950;2024-02-26T11:09:12;4.90;99.90
11764;DHT22;5939;56.522;14.950;2024-02-26T11:11:38;4.90;99.90
11764;DHT22;5939;56.522;14.950;2024-02-26T11:14:06;4.90;99.90
11764;DHT22;5939;56.522;14.950;2024-02-26T11:16:35;5.00;99.90
11764;DHT22;5939;56.522;14.950;2024-02-26T11:19:02;5.00;99.90
11764;DHT22;5939;56.522;14.950;2024-02-26T11:21:28;5.00;99.90
11764;DHT22;5939;56.522;14.950;2024-02-26T11:24:05;5.10;99.90
11764;DHT22;5939;56.522;14.950;2024-02-26T11:26:33;5.10;99.90
11764;DHT22;5939;56.522;14.950;2024-02-26T11:29:00;5.10;99.90
11764;DHT22;5939;56.522;14.950;2024-02-26T11:31:27;5.20;99.90
11764;DHT22;5939;56.522;14.950;2024-02-26T11:33:54;5.20;99.90
11764;DHT22;5939;56.522;14.950;2024-02-26T11:36:21;5.30;99.90
11764;DHT22;5939;56.522;14.950;2024-02-26T11:38:49;5.30;99.90
11764;DHT22;5939;56.522;14.950;2024-02-26T11:41:17;5.40;99.90
11764;DHT22;5939;56.522;14.950;2024-02-26T11:43:50;5.40;99.90
11764;DHT22;5939;56.522;14.950;2024-02-26T11:46:40;5.50;99.90
11764;DHT22;5939;56.522;14.950;2024-02-26T11:51:52;5.60;99.90
11764;DHT22;5939;56.522;14.950;2024-02-26T11:54:51;5.60;99.90
11764;DHT22;5939;56.522;14.950;2024-02-26T11:57:24;5.60;99.90
11764;DHT22;5939;56.522;14.950;2024-02-26T11:59:51;5.70;99.90
11764;DHT22;5939;56.522;14.950;2024-02-26T12:07:54;5.80;99.90
11764;DHT22;5939;56.522;14.950;2024-02-26T12:10:26;5.80;99.90
11764;DHT22;5939;56.522;14.950;2024-02-26T12:13:14;5.80;99.90
11764;DHT22;5939;56.522;14.950;2024-02-26T12:15:55;5.90;99.90
11764;DHT22;5939;56.522;14.950;2024-02-26T12:18:22;5.90;99.90
11764;DHT22;5939;56.522;14.950;2024-02-26T12:21:04;5.90;99.90
11764;DHT22;5939;56.522;14.950;2024-02-26T12:23:30;6.00;99.90
11764;DHT22;5939;56.522;14.950;2024-02-26T12:26:02;6.00;99.90
11764;DHT22;5939;56.522;14.950;2024-02-26T12:28:31;6.00;99.90
11764;DHT22;5939;56.522;14.950;2024-02-26T12:30:57;6.00;99.90
11764;DHT22;5939;56.522;14.950;2024-02-26T12:33:25;6.10;99.90
11764;DHT22;5939;56.522;14.950;2024-02-26T12:35:52;6.10;99.90
11764;DHT22;5939;56.522;14.950;2024-02-26T12:38:18;6.10;99.90
11764;DHT22;5939;56.522;14.950;2024-02-26T12:40:44;6.10;99.90
11764;DHT22;5939;56.522;14.950;2024-02-26T12:43:10;6.20;99.90
11764;DHT22;5939;56.522;14.950;2024-02-26T12:45:41;6.20;99.90
11764;DHT22;5939;56.522;14.950;2024-02-26T12:48:08;6.30;99.90
11764;DHT22;5939;56.522;14.950;2024-02-26T12:50:34;6.30;99.90
11764;DHT22;5939;56.522;14.950;2024-02-26T12:53:00;6.30;99.90
11764;DHT22;5939;56.522;14.950;2024-02-26T12:55:26;6.30;99.90
11764;DHT22;5939;56.522;14.950;2024-02-26T12:57:52;6.30;99.90
11764;DHT22;5939;56.522;14.950;2024-02-26T13:00:21;6.40;99.90
11764;DHT22;5939;56.522;14.950;2024-02-26T13:02:49;6.40;99.90
11764;DHT22;5939;56.522;14.950;2024-02-26T13:05:16;6.40;99.90
11764;DHT22;5939;56.522;14.950;2024-02-26T13:07:46;6.40;99.90
11764;DHT22;5939;56.522;14.950;2024-02-26T13:10:15;6.40;99.90
11764;DHT22;5939;56.522;14.950;2024-02-26T13:12:48;6.50;99.90
11764;DHT22;5939;56.522;14.950;2024-02-26T13:15:18;6.50;99.90
11764;DHT22;5939;56.522;14.950;2024-02-26T13:17:44;6.50;99.90
11764;DHT22;5939;56.522;14.950;2024-02-26T13:20:10;6.50;99.90
11764;DHT22;5939;56.522;14.950;2024-02-26T13:22:37;6.50;99.90
11764;DHT22;5939;56.522;14.950;2024-02-26T13:25:03;6.50;99.90
11764;DHT22;5939;56.522;14.950;2024-02-26T13:27:29;6.60;99.90
11764;DHT22;5939;56.522;14.950;2024-02-26T13:30:08;6.60;99.90
11764;DHT22;5939;56.522;14.950;2024-02-26T13:32:36;6.60;99.90
11764;DHT22;5939;56.522;14.950;2024-02-26T13:35:10;6.60;99.90
11764;DHT22;5939;56.522;14.950;2024-02-26T13:37:36;6.60;99.90
11764;DHT22;5939;56.522;14.950;2024-02-26T13:40:06;6.60;99.90
11764;DHT22;5939;56.522;14.950;2024-02-26T13:42:34;6.70;99.90
11764;DHT22;5939;56.522;14.950;2024-02-26T13:45:00;6.70;99.90
11764;DHT22;5939;56.522;14.950;2024-02-26T13:47:26;6.70;99.90
11764;DHT22;5939;56.522;14.950;2024-02-26T13:49:51;6.70;99.90
11764;DHT22;5939;56.522;14.950;2024-02-26T13:52:17;6.70;99.90
11764;DHT22;5939;56.522;14.950;2024-02-26T13:54:45;6.70;99.90
11764;DHT22;5939;56.522;14.950;2024-02-26T13:57:11;6.70;99.90
11764;DHT22;5939;56.522;14.950;2024-02-26T13:59:37;6.70;99.90
11764;DHT22;5939;56.522;14.950;2024-02-26T14:02:07;6.80;99.90
11764;DHT22;5939;56.522;14.950;2024-02-26T14:04:33;6.80;99.90
11764;DHT22;5939;56.522;14.950;2024-02-26T14:06:58;6.80;99.90
11764;DHT22;5939;56.522;14.950;2024-02-26T14:09:24;6.80;99.90
11764;DHT22;5939;56.522;14.950;2024-02-26T14:11:49;6.80;99.90
11764;DHT22;5939;56.522;14.950;2024-02-26T14:14:15;6.80;99.90
11764;DHT22;5939;56.522;14.950;2024-02-26T14:16:41;6.80;99.90
11764;DHT22;5939;56.522;14.950;2024-02-26T14:19:06;6.80;99.90
11764;DHT22;5939;56.522;14.950;2024-02-26T14:21:32;6.90;99.90
11764;DHT22;5939;56.522;14.950;2024-02-26T14:23:58;6.90;99.90
11764;DHT22;5939;56.522;14.950;2024-02-26T14:26:23;6.90;99.90
11764;DHT22;5939;56.522;14.950;2024-02-26T14:28:49;6.90;99.90
11764;DHT22;5939;56.522;14.950;2024-02-26T14:31:18;6.90;99.90
11764;DHT22;5939;56.522;14.950;2024-02-26T14:33:44;6.90;99.90
11764;DHT22;5939;56.522;14.950;2024-02-26T14:36:11;6.90;99.90
11764;DHT22;5939;56.522;14.950;2024-02-26T14:38:37;6.90;99.90
11764;DHT22;5939;56.522;14.950;2024-02-26T14:41:04;6.90;99.90
11764;DHT22;5939;56.522;14.950;2024-02-26T14:43:30;6.90;99.90
11764;DHT22;5939;56.522;14.950;2024-02-26T14:45:58;6.90;99.90
11764;DHT22;5939;56.522;14.950;2024-02-26T14:48:24;6.90;99.90
11764;DHT22;5939;56.522;14.950;2024-02-26T14:50:50;6.90;99.90
11764;DHT22;5939;56.522;14.950;2024-02-26T14:53:17;6.90;99.90
11764;DHT22;5939;56.522;14.950;2024-02-26T14:55:42;6.90;99.90
11764;DHT22;5939;56.522;14.950;2024-02-26T14:58:08;6.90;99.90
11764;DHT22;5939;56.522;14.950;2024-02-26T15:00:40;6.90;99.90
11764;DHT22;5939;56.522;14.950;2024-02-26T15:03:06;6.90;99.90
11764;DHT22;5939;56.522;14.950;2024-02-26T15:05:32;6.90;99.90
11764;DHT22;5939;56.522;14.950;2024-02-26T15:07:58;6.90;99.90
11764;DHT22;5939;56.522;14.950;2024-02-26T15:10:25;6.90;99.90
11764;DHT22;5939;56.522;14.950;2024-02-26T15:12:51;6.90;99.90
11764;DHT22;5939;56.522;14.950;2024-02-26T15:15:23;6.90;99.90
11764;DHT22;5939;56.522;14.950;2024-02-26T15:17:49;6.90;99.90
11764;DHT22;5939;56.522;14.950;2024-02-26T15:20:15;6.90;99.90
11764;DHT22;5939;56.522;14.950;2024-02-26T15:22:41;6.90;99.90
11764;DHT22;5939;56.522;14.950;2024-02-26T15:25:07;6.90;99.90
11764;DHT22;5939;56.522;14.950;2024-02-26T15:27:33;6.90;99.90
11764;DHT22;5939;56.522;14.950;2024-02-26T15:30:00;6.80;99.90
11764;DHT22;5939;56.522;14.950;2024-02-26T15:32:26;6.90;99.90
11764;DHT22;5939;56.522;14.950;2024-02-26T15:34:53;6.80;99.90
11764;DHT22;5939;56.522;14.950;2024-02-26T15:37:19;6.80;99.90
11764;DHT22;5939;56.522;14.950;2024-02-26T15:39:44;6.80;99.90
11764;DHT22;5939;56.522;14.950;2024-02-26T15:42:11;6.80;99.90
11764;DHT22;5939;56.522;14.950;2024-02-26T15:44:37;6.80;99.90
11764;DHT22;5939;56.522;14.950;2024-02-26T15:47:04;6.80;99.90
11764;DHT22;5939;56.522;14.950;2024-02-26T15:49:30;6.80;99.90